createdAt,value
2022-08-17T00:01:26.260Z,12.02
2022-08-17T00:03:54.289Z,18.58
2022-08-17T00:06:24.037Z,19.08
2022-08-17T00:08:53.851Z,15.88
2022-08-17T00:11:27.983Z,14.95
2022-08-17T00:14:05.690Z,14.75
2022-08-17T00:16:50.510Z,15.00
2022-08-17T00:19:25.051Z,20.25
2022-08-17T00:22:31.004Z,18.17
2022-08-17T00:24:40.614Z,15.77
2022-08-17T00:27:06.959Z,13.27
2022-08-17T00:29:33.369Z,17.10
2022-08-17T00:32:01.612Z,14.35
2022-08-17T00:34:47.939Z,17.27
2022-08-17T00:37:14.271Z,13.43
2022-08-17T00:39:40.632Z,13.75
2022-08-17T00:42:18.833Z,16.35
2022-08-17T00:44:45.350Z,13.55
2022-08-17T00:47:13.299Z,15.38
2022-08-17T00:49:39.734Z,15.55
2022-08-17T00:52:14.232Z,13.27
2022-08-17T00:54:43.159Z,14.27
2022-08-17T00:57:31.550Z,13.57
2022-08-17T01:00:04.008Z,20.45
2022-08-17T01:02:40.445Z,13.35
2022-08-17T01:05:16.238Z,13.93
2022-08-17T01:07:47.561Z,12.10
2022-08-17T01:11:00.476Z,12.38
2022-08-17T01:13:06.611Z,12.55
2022-08-17T01:15:37.208Z,14.30
2022-08-17T01:18:06.485Z,13.55
2022-08-17T01:20:48.094Z,16.52
2022-08-17T01:23:16.435Z,13.20
2022-08-17T01:25:51.105Z,14.20
2022-08-17T01:28:53.227Z,14.95
2022-08-17T01:31:07.669Z,12.98
2022-08-17T01:33:34.079Z,14.65
2022-08-17T01:36:00.409Z,13.57
2022-08-17T01:38:27.480Z,15.80
2022-08-17T01:40:58.210Z,12.18
2022-08-17T01:43:29.818Z,13.75
2022-08-17T01:46:03.024Z,12.77
2022-08-17T01:48:33.095Z,13.10
2022-08-17T01:51:00.006Z,13.60
2022-08-17T01:53:31.612Z,15.02
2022-08-17T01:56:05.198Z,14.98
2022-08-17T01:58:32.998Z,13.77
2022-08-17T02:01:00.987Z,12.68
2022-08-17T02:03:28.395Z,13.38
2022-08-17T02:05:54.889Z,15.20
2022-08-17T02:08:36.881Z,13.93
2022-08-17T02:11:12.117Z,15.25
2022-08-17T02:13:38.799Z,19.83
2022-08-17T02:16:05.174Z,14.18
2022-08-17T02:18:31.514Z,14.52
2022-08-17T02:20:58.043Z,16.55
2022-08-17T02:23:26.665Z,13.55
2022-08-17T02:25:55.309Z,14.48
2022-08-17T02:28:21.633Z,14.43
2022-08-17T02:31:02.583Z,14.88
2022-08-17T02:33:41.840Z,14.10
2022-08-17T02:36:10.972Z,16.33
2022-08-17T02:38:38.125Z,15.98
2022-08-17T02:41:04.963Z,16.65
2022-08-17T02:43:31.499Z,15.98
2022-08-17T02:45:57.952Z,15.48
2022-08-17T02:48:31.694Z,21.35
2022-08-17T02:50:58.832Z,15.10
2022-08-17T02:53:25.692Z,13.75
2022-08-17T02:55:53.022Z,14.75
2022-08-17T02:58:35.708Z,17.35
2022-08-17T03:01:05.309Z,18.05
2022-08-17T03:03:31.820Z,17.02
2022-08-17T03:05:58.177Z,16.10
2022-08-17T03:08:24.590Z,20.63
2022-08-17T03:10:51.103Z,19.23
2022-08-17T03:13:17.503Z,20.08
2022-08-17T03:15:45.371Z,16.63
2022-08-17T03:18:19.320Z,15.95
2022-08-17T03:20:52.710Z,17.33
2022-08-17T03:23:19.040Z,17.13
2022-08-17T03:25:52.989Z,17.05
2022-08-17T03:28:20.706Z,17.17
2022-08-17T03:30:47.075Z,18.05
2022-08-17T03:33:13.503Z,17.17
2022-08-17T03:35:40.698Z,17.30
2022-08-17T03:38:09.616Z,16.48
2022-08-17T03:40:56.878Z,17.67
2022-08-17T03:43:23.108Z,15.77
2022-08-17T03:45:51.272Z,16.65
2022-08-17T03:48:20.418Z,17.45
2022-08-17T03:50:46.738Z,15.60
2022-08-17T03:53:16.668Z,16.23
2022-08-17T03:55:43.120Z,16.77
2022-08-17T03:58:09.462Z,16.80
2022-08-17T04:00:36.559Z,16.23
2022-08-17T04:03:06.120Z,16.60
2022-08-17T04:05:35.294Z,16.75
2022-08-17T04:08:01.638Z,17.20
2022-08-17T04:10:33.979Z,16.77
2022-08-17T04:13:07.747Z,19.52
2022-08-17T04:15:34.074Z,16.92
2022-08-17T04:18:00.519Z,16.75
2022-08-17T04:20:27.806Z,19.08
2022-08-17T04:23:11.999Z,18.38
2022-08-17T04:25:42.879Z,17.73
2022-08-17T04:28:15.884Z,18.67
2022-08-17T04:30:44.401Z,16.88
2022-08-17T04:33:16.071Z,20.95
2022-08-17T04:35:51.127Z,17.88
2022-08-17T04:40:49.021Z,16.08
2022-08-17T04:43:18.642Z,17.10
2022-08-17T04:46:15.833Z,15.40
2022-08-17T04:48:45.825Z,16.25
2022-08-17T04:51:19.280Z,19.75
2022-08-17T04:53:54.364Z,18.70
2022-08-17T04:56:22.431Z,14.98
2022-08-17T04:58:50.945Z,15.88
2022-08-17T05:01:23.390Z,21.35
2022-08-17T05:03:51.006Z,14.50
2022-08-17T05:06:17.337Z,16.60
2022-08-17T05:08:43.707Z,15.50
2022-08-17T05:11:10.087Z,15.25
2022-08-17T05:13:36.554Z,15.55
2022-08-17T05:16:03.856Z,13.20
2022-08-17T05:18:31.126Z,14.18
2022-08-17T05:20:57.906Z,16.05
2022-08-17T05:23:27.500Z,15.27
2022-08-17T05:26:11.625Z,15.93
2022-08-17T05:28:49.011Z,13.13
2022-08-17T05:31:16.762Z,13.75
2022-08-17T05:33:45.196Z,13.10
2022-08-17T05:36:42.111Z,16.60
2022-08-17T05:39:00.664Z,18.67
2022-08-17T05:41:27.000Z,14.05
2022-08-17T05:43:56.345Z,14.00
2022-08-17T05:46:27.012Z,19.17
2022-08-17T05:48:58.287Z,13.93
2022-08-17T05:51:34.956Z,14.18
2022-08-17T05:54:27.634Z,16.60
2022-08-17T05:57:02.961Z,12.23
2022-08-17T05:59:34.962Z,14.43
2022-08-17T06:02:21.502Z,12.07
2022-08-17T06:05:14.998Z,14.40
2022-08-17T06:07:53.562Z,12.68
2022-08-17T06:10:43.577Z,17.30
2022-08-17T06:13:40.942Z,11.15
2022-08-17T06:16:33.776Z,10.95
2022-08-17T06:19:19.652Z,9.30
2022-08-17T06:24:52.279Z,11.05
2022-08-17T06:27:38.643Z,12.68
2022-08-17T06:30:24.260Z,15.30
2022-08-17T06:32:52.056Z,14.05
2022-08-17T06:35:43.850Z,11.77
2022-08-17T06:38:38.883Z,12.88
2022-08-17T06:41:44.113Z,14.23
2022-08-17T06:44:49.957Z,8.23
2022-08-17T06:47:28.305Z,11.50
2022-08-17T06:50:14.233Z,9.00
2022-08-17T06:53:14.562Z,12.02
2022-08-17T06:55:48.637Z,12.43
2022-08-17T06:58:19.902Z,11.88
2022-08-17T07:00:49.186Z,10.10
2022-08-17T07:03:43.558Z,10.65
2022-08-17T07:06:19.474Z,12.00
2022-08-17T07:09:00.986Z,14.93
2022-08-17T07:11:38.188Z,8.35
2022-08-17T07:14:29.993Z,9.73
2022-08-17T07:16:58.714Z,12.43
2022-08-17T07:19:30.912Z,10.95
2022-08-17T07:22:03.682Z,10.02
2022-08-17T07:24:35.505Z,7.85
2022-08-17T07:27:18.482Z,8.57
2022-08-17T07:29:49.816Z,11.88
2022-08-17T07:32:25.702Z,9.20
2022-08-17T07:35:03.646Z,11.82
2022-08-17T07:37:29.987Z,9.68
2022-08-17T07:40:14.881Z,9.70
2022-08-17T07:42:46.756Z,10.90
2022-08-17T07:45:14.905Z,9.98
2022-08-17T07:47:50.721Z,8.88
2022-08-17T07:50:29.676Z,5.55
2022-08-17T07:52:56.016Z,9.15
2022-08-17T07:55:30.042Z,8.35
2022-08-17T07:57:58.426Z,8.27
2022-08-17T08:00:32.761Z,7.00
2022-08-17T08:05:57.496Z,7.50
2022-08-17T08:08:36.505Z,5.45
2022-08-17T08:11:14.199Z,5.88
2022-08-17T08:13:42.600Z,6.38
2022-08-17T08:16:22.093Z,4.40
2022-08-17T08:18:54.750Z,8.23
2022-08-17T08:24:05.392Z,9.77
2022-08-17T08:26:40.494Z,4.60
2022-08-17T08:29:42.238Z,8.60
2022-08-17T08:32:27.339Z,5.38
2022-08-17T08:35:05.228Z,6.82
2022-08-17T08:37:56.675Z,5.55
2022-08-17T08:40:33.327Z,8.55
2022-08-17T08:43:14.175Z,4.95
2022-08-17T08:46:06.651Z,6.78
2022-08-17T08:48:55.682Z,5.00
2022-08-17T08:51:34.846Z,7.47
2022-08-17T08:54:27.067Z,7.43
2022-08-17T08:57:22.400Z,6.45
2022-08-17T09:00:07.622Z,5.03
2022-08-17T09:03:19.622Z,5.15
2022-08-17T09:05:54.989Z,9.50
2022-08-17T09:08:42.202Z,4.25
2022-08-17T09:11:15.864Z,4.20
2022-08-17T09:13:55.484Z,6.35
2022-08-17T09:16:38.570Z,6.05
2022-08-17T09:19:11.531Z,6.47
2022-08-17T09:21:48.036Z,4.93
2022-08-17T09:24:42.787Z,4.80
2022-08-17T09:27:15.601Z,5.22
2022-08-17T09:29:48.469Z,3.90
2022-08-17T09:32:20.444Z,4.03
2022-08-17T09:34:52.942Z,6.75
2022-08-17T09:37:25.567Z,6.80
2022-08-17T09:40:10.730Z,3.95
2022-08-17T09:42:48.653Z,5.82
2022-08-17T09:45:28.030Z,3.85
2022-08-17T09:48:18.099Z,4.45
2022-08-17T09:51:03.439Z,4.65
2022-08-17T09:53:32.586Z,3.97
2022-08-17T09:56:29.679Z,4.30
2022-08-17T09:59:38.240Z,5.75
2022-08-17T10:02:31.938Z,3.83
2022-08-17T10:05:05.989Z,5.00
2022-08-17T10:08:04.677Z,4.45
2022-08-17T10:10:52.385Z,3.67
2022-08-17T10:13:41.028Z,5.88
2022-08-17T10:16:44.072Z,4.78
2022-08-17T10:19:18.289Z,4.32
2022-08-17T10:21:48.920Z,4.03
2022-08-17T10:24:34.006Z,4.88
2022-08-17T10:27:03.300Z,4.28
2022-08-17T10:30:00.351Z,3.22
2022-08-17T10:32:30.309Z,5.13
2022-08-17T10:35:20.651Z,5.55
2022-08-17T10:38:01.219Z,5.38
2022-08-17T10:40:50.102Z,3.42
2022-08-17T10:43:21.478Z,4.30
2022-08-17T10:46:10.341Z,5.00
2022-08-17T10:49:12.714Z,6.82
2022-08-17T10:51:41.064Z,4.32
2022-08-17T10:54:58.563Z,3.75
2022-08-17T10:57:31.227Z,3.22
2022-08-17T10:59:59.368Z,3.50
2022-08-17T11:02:30.612Z,4.25
2022-08-17T11:05:31.708Z,3.65
2022-08-17T11:08:23.211Z,4.25
2022-08-17T11:11:30.218Z,5.50
2022-08-17T11:14:30.682Z,2.95
2022-08-17T11:17:36.817Z,3.08
2022-08-17T11:20:45.513Z,3.58
2022-08-17T11:23:32.704Z,3.63
2022-08-17T11:26:01.840Z,3.72
2022-08-17T11:28:32.009Z,3.80
2022-08-17T11:31:19.694Z,2.70
2022-08-17T11:34:19.297Z,5.25
2022-08-17T11:37:05.698Z,3.90
2022-08-17T11:39:54.296Z,3.00
2022-08-17T11:42:47.520Z,4.85
2022-08-17T11:45:45.829Z,5.57
2022-08-17T11:48:45.930Z,5.20
2022-08-17T11:51:21.341Z,3.45
2022-08-17T11:53:47.626Z,2.95
2022-08-17T11:56:45.101Z,3.13
2022-08-17T11:59:30.361Z,3.38
2022-08-17T12:01:56.794Z,3.15
2022-08-17T12:04:34.940Z,6.85
2022-08-17T12:07:15.182Z,4.38
2022-08-17T12:09:47.172Z,3.55
2022-08-17T12:12:26.351Z,2.63
2022-08-17T12:15:12.048Z,3.33
2022-08-17T12:17:41.613Z,2.83
2022-08-17T12:20:14.450Z,2.75
2022-08-17T12:23:08.980Z,3.53
2022-08-17T12:25:43.912Z,3.38
2022-08-17T12:28:27.093Z,3.60
2022-08-17T12:30:55.502Z,5.35
2022-08-17T12:33:27.988Z,3.53
2022-08-17T12:36:08.052Z,3.30
2022-08-17T12:38:36.844Z,3.17
2022-08-17T12:41:06.267Z,6.47
2022-08-17T12:43:32.604Z,4.20
2022-08-17T12:46:00.925Z,5.78
2022-08-17T12:48:59.280Z,4.63
2022-08-17T12:51:27.066Z,3.17
2022-08-17T12:53:55.042Z,5.43
2022-08-17T12:56:21.544Z,3.47
2022-08-17T12:58:51.200Z,3.35
2022-08-17T13:01:17.886Z,4.45
2022-08-17T13:03:48.122Z,4.88
2022-08-17T13:06:27.456Z,6.45
2022-08-17T13:08:53.940Z,3.40
2022-08-17T13:11:23.441Z,5.65
2022-08-17T13:13:55.289Z,3.08
2022-08-17T13:16:31.010Z,2.88
2022-08-17T13:19:14.888Z,4.03
2022-08-17T13:22:01.330Z,2.97
2022-08-17T13:24:37.819Z,5.45
2022-08-17T13:29:51.195Z,5.20
2022-08-17T13:32:34.490Z,3.30
2022-08-17T13:35:15.572Z,3.33
2022-08-17T13:38:06.504Z,4.30
2022-08-17T13:40:44.361Z,5.20
2022-08-17T13:43:11.424Z,4.85
2022-08-17T13:45:45.971Z,4.57
2022-08-17T13:48:27.807Z,4.82
2022-08-17T13:50:54.086Z,4.85
2022-08-17T13:53:32.834Z,5.07
2022-08-17T13:56:03.899Z,5.30
2022-08-17T13:58:36.796Z,4.78
2022-08-17T14:01:32.550Z,5.05
2022-08-17T14:04:01.462Z,6.05
2022-08-17T14:06:53.287Z,2.65
2022-08-17T14:09:20.463Z,4.18
2022-08-17T14:11:48.974Z,4.55
2022-08-17T14:14:16.539Z,4.70
2022-08-17T14:16:42.881Z,3.72
2022-08-17T14:19:11.258Z,4.38
2022-08-17T14:21:38.453Z,5.90
2022-08-17T14:24:09.655Z,5.95
2022-08-17T14:26:36.091Z,8.82
2022-08-17T14:29:02.449Z,6.43
2022-08-17T14:31:29.665Z,4.05
2022-08-17T14:33:58.226Z,5.97
2022-08-17T14:36:25.607Z,4.30
2022-08-17T14:38:51.956Z,5.13
2022-08-17T14:41:22.063Z,5.10
2022-08-17T14:43:49.483Z,4.97
2022-08-17T14:46:15.877Z,5.53
2022-08-17T14:48:42.215Z,5.45
2022-08-17T14:51:08.671Z,5.95
2022-08-17T14:53:35.034Z,4.00
2022-08-17T14:56:01.366Z,5.45
2022-08-17T14:58:27.766Z,3.58
2022-08-17T15:00:54.119Z,5.60
2022-08-17T15:03:20.503Z,4.80
2022-08-17T15:05:46.849Z,2.80
2022-08-17T15:08:13.207Z,3.70
2022-08-17T15:10:39.529Z,6.97
2022-08-17T15:13:20.568Z,4.40
2022-08-17T15:15:48.013Z,4.38
2022-08-17T15:18:15.172Z,3.38
2022-08-17T15:20:42.758Z,4.47
2022-08-17T15:23:12.644Z,4.38
2022-08-17T15:25:39.189Z,4.35
2022-08-17T15:28:05.553Z,8.02
2022-08-17T15:30:31.952Z,5.03
2022-08-17T15:33:02.503Z,6.13
2022-08-17T15:35:33.061Z,5.60
2022-08-17T15:38:11.306Z,7.00
2022-08-17T15:40:41.784Z,3.47
2022-08-17T15:43:27.300Z,5.13
2022-08-17T15:46:03.507Z,5.55
2022-08-17T15:48:31.779Z,5.50
2022-08-17T15:50:58.121Z,5.65
2022-08-17T15:53:24.453Z,3.78
2022-08-17T15:55:50.767Z,5.13
2022-08-17T15:58:19.317Z,3.72
2022-08-17T16:00:53.482Z,3.22
2022-08-17T16:03:59.335Z,4.30
2022-08-17T16:06:20.228Z,5.30
2022-08-17T16:08:46.631Z,4.20
2022-08-17T16:11:15.947Z,3.35
2022-08-17T16:13:43.269Z,2.60
2022-08-17T16:16:20.996Z,2.63
2022-08-17T16:18:47.319Z,2.92
2022-08-17T16:21:20.933Z,3.58
2022-08-17T16:23:49.040Z,3.88
2022-08-17T16:26:15.911Z,2.90
2022-08-17T16:28:42.268Z,6.00
2022-08-17T16:31:09.335Z,3.97
2022-08-17T16:33:37.475Z,5.28
2022-08-17T16:36:04.111Z,3.17
2022-08-17T16:38:30.441Z,4.65
2022-08-17T16:40:56.852Z,4.38
2022-08-17T16:43:23.199Z,2.95
2022-08-17T16:45:52.133Z,2.45
2022-08-17T16:48:18.710Z,2.95
2022-08-17T16:51:02.840Z,3.83
2022-08-17T16:53:29.963Z,6.10
2022-08-17T16:55:56.386Z,4.97
2022-08-17T16:58:22.727Z,4.25
2022-08-17T17:00:49.161Z,3.28
2022-08-17T17:03:20.667Z,2.63
2022-08-17T17:06:06.483Z,3.65
2022-08-17T17:08:44.572Z,3.35
2022-08-17T17:11:15.768Z,4.00
2022-08-17T17:13:55.681Z,4.65
2022-08-17T17:16:37.179Z,2.92
2022-08-17T17:19:16.059Z,5.35
2022-08-17T17:22:01.650Z,3.20
2022-08-17T17:24:41.289Z,3.05
2022-08-17T17:27:20.053Z,3.80
2022-08-17T17:29:59.229Z,2.95
2022-08-17T17:32:39.007Z,2.58
2022-08-17T17:35:10.616Z,3.67
2022-08-17T17:37:39.654Z,3.78
2022-08-17T17:40:40.188Z,3.40
2022-08-17T17:43:37.134Z,2.78
2022-08-17T17:46:26.817Z,3.45
2022-08-17T17:48:54.365Z,4.18
2022-08-17T17:51:58.156Z,3.60
2022-08-17T17:54:39.161Z,3.72
2022-08-17T17:57:34.178Z,2.97
2022-08-17T18:00:09.868Z,3.30
2022-08-17T18:03:17.416Z,4.40
2022-08-17T18:06:02.194Z,6.10
2022-08-17T18:08:32.155Z,5.93
2022-08-17T18:11:24.048Z,5.72
2022-08-17T18:14:24.088Z,4.85
2022-08-17T18:16:56.378Z,4.82
2022-08-17T18:19:25.033Z,5.57
2022-08-17T18:21:58.943Z,4.93
2022-08-17T18:24:36.372Z,4.80
2022-08-17T18:27:18.339Z,4.45
2022-08-17T18:29:46.875Z,3.75
2022-08-17T18:32:19.603Z,4.68
2022-08-17T18:34:48.868Z,4.25
2022-08-17T18:37:41.584Z,6.72
2022-08-17T18:40:17.013Z,4.28
2022-08-17T18:43:13.230Z,3.85
2022-08-17T18:45:42.385Z,4.28
2022-08-17T18:48:20.329Z,5.85
2022-08-17T18:50:47.335Z,6.45
2022-08-17T18:53:33.192Z,7.03
2022-08-17T18:56:20.429Z,4.13
2022-08-17T18:59:11.644Z,6.68
2022-08-17T19:01:53.555Z,4.60
2022-08-17T19:04:35.294Z,4.43
2022-08-17T19:07:06.354Z,4.90
2022-08-17T19:09:38.234Z,5.15
2022-08-17T19:12:08.490Z,8.52
2022-08-17T19:14:35.825Z,8.10
2022-08-17T19:17:36.391Z,8.95
2022-08-17T19:20:10.479Z,9.75
2022-08-17T19:22:44.548Z,12.52
2022-08-17T19:25:17.192Z,9.85
2022-08-17T19:27:57.331Z,14.38
2022-08-17T19:30:24.246Z,11.57
2022-08-17T19:32:50.770Z,11.05
2022-08-17T19:35:19.396Z,10.57
2022-08-17T19:38:01.682Z,14.48
2022-08-17T19:40:53.251Z,13.73
2022-08-17T19:43:27.206Z,12.20
2022-08-17T19:46:20.894Z,10.18
2022-08-17T19:49:15.763Z,11.77
2022-08-17T19:51:52.267Z,13.63
2022-08-17T19:54:37.138Z,15.63
2022-08-17T19:57:15.200Z,18.90
2022-08-17T20:00:04.506Z,17.05
2022-08-17T20:02:30.811Z,19.88
2022-08-17T20:05:02.844Z,15.45
2022-08-17T20:07:42.623Z,13.70
2022-08-17T20:10:20.399Z,20.10
2022-08-17T20:12:50.891Z,18.38
2022-08-17T20:15:28.248Z,16.45
2022-08-17T20:17:58.771Z,18.17
2022-08-17T20:20:43.470Z,16.58
2022-08-17T20:23:28.434Z,20.95
2022-08-17T20:26:03.621Z,20.05
2022-08-17T20:28:34.009Z,18.67
2022-08-17T20:31:02.359Z,18.27
2022-08-17T20:33:34.287Z,24.95
2022-08-17T20:36:21.819Z,20.13
2022-08-17T20:38:55.775Z,23.40
2022-08-17T20:41:23.316Z,18.88
2022-08-17T20:44:10.002Z,20.02
2022-08-17T20:46:36.296Z,19.13
2022-08-17T20:49:08.518Z,17.85
2022-08-17T20:52:01.371Z,19.75
2022-08-17T20:54:52.272Z,21.00
2022-08-17T20:57:46.090Z,21.90
2022-08-17T21:00:32.401Z,21.15
2022-08-17T21:03:20.531Z,20.77
2022-08-17T21:06:00.223Z,29.20
2022-08-17T21:09:04.508Z,25.63
2022-08-17T21:12:02.398Z,27.50
2022-08-17T21:14:41.480Z,29.60
2022-08-17T21:17:42.870Z,26.23
2022-08-17T21:20:40.585Z,28.88
2022-08-17T21:23:33.057Z,28.38
2022-08-17T21:26:20.667Z,37.38
2022-08-17T21:29:29.847Z,29.30
2022-08-17T21:32:14.728Z,33.95
2022-08-17T21:35:07.034Z,33.33
2022-08-17T21:37:42.498Z,35.67
2022-08-17T21:40:15.015Z,33.00
2022-08-17T21:42:51.369Z,34.60
2022-08-17T21:45:23.532Z,34.60
2022-08-17T21:48:06.019Z,35.28
2022-08-17T21:50:32.501Z,37.78
2022-08-17T21:53:00.865Z,36.17
2022-08-17T21:55:31.367Z,40.30
2022-08-17T21:58:13.341Z,44.33
2022-08-17T22:00:42.282Z,49.40
2022-08-17T22:03:23.258Z,47.72
2022-08-17T22:05:49.597Z,44.58
2022-08-17T22:08:22.174Z,42.95
2022-08-17T22:10:50.615Z,46.08
2022-08-17T22:13:17.594Z,45.15
2022-08-17T22:15:49.952Z,40.90
2022-08-17T22:18:26.770Z,44.95
2022-08-17T22:20:55.833Z,46.53
2022-08-17T22:23:28.325Z,46.90
2022-08-17T22:26:05.215Z,47.63
2022-08-17T22:28:58.232Z,47.88
2022-08-17T22:31:30.238Z,50.30
2022-08-17T22:33:59.411Z,54.58
2022-08-17T22:36:34.911Z,58.88
2022-08-17T22:39:21.182Z,58.55
2022-08-17T22:41:47.450Z,57.50
2022-08-17T22:44:15.515Z,61.88
2022-08-17T22:46:54.113Z,63.50
2022-08-17T22:49:54.146Z,68.45
2022-08-17T22:52:43.126Z,66.22
2022-08-17T22:55:17.569Z,74.57
2022-08-17T22:57:47.487Z,68.65
2022-08-17T23:00:41.723Z,68.50
2022-08-17T23:03:13.165Z,68.28
2022-08-17T23:05:43.741Z,68.40
2022-08-17T23:08:10.639Z,64.63
2022-08-17T23:10:37.181Z,65.93
2022-08-17T23:13:03.903Z,67.63
2022-08-17T23:15:30.311Z,66.25
2022-08-17T23:17:56.635Z,70.18
2022-08-17T23:20:22.987Z,73.78
2022-08-17T23:22:52.355Z,75.53
2022-08-17T23:25:26.200Z,77.70
2022-08-17T23:27:52.833Z,75.47
2022-08-17T23:30:19.414Z,75.25
2022-08-17T23:32:53.833Z,72.95
2022-08-17T23:35:20.996Z,73.13
2022-08-17T23:38:10.566Z,74.90
2022-08-17T23:40:37.806Z,64.50
2022-08-17T23:43:11.463Z,68.28
2022-08-17T23:45:50.193Z,61.88
2022-08-17T23:48:28.631Z,63.33
2022-08-17T23:51:07.665Z,66.80
2022-08-17T23:53:34.704Z,62.08
2022-08-17T23:56:09.030Z,63.63
2022-08-17T23:58:37.716Z,65.20
